Time;durP1;ratioP1;P1;durP2;ratioP2;P2;SDS_P1;SDS_P2;PMS_P1;PMS_P2;Temp;Humidity;BMP_temperature;BMP_pressure;BME280_temperature;BME280_humidity;BME280_pressure;Samples;Min_cycle;Max_cycle;Signal;HPM_P1;HPM_P2
2021/12/01 00:00:12;;;;;;;5.17;2.30;;;1.70;80.10;;;;;;5005933;28;20555;-55
2021/12/01 00:02:39;;;;;;;3.00;1.70;;;1.70;76.90;;;;;;5012520;28;21017;-55
2021/12/01 00:05:08;;;;;;;2.97;2.17;;;1.60;75.50;;;;;;5007524;28;20518;-55
2021/12/01 00:07:36;;;;;;;3.87;1.60;;;1.60;74.00;;;;;;5005509;28;20546;-54
2021/12/01 00:10:05;;;;;;;1.70;1.60;;;1.60;67.40;;;;;;5013517;28;20472;-55
2021/12/01 00:12:32;;;;;;;4.73;1.97;;;1.60;68.90;;;;;;5017859;28;20503;-54
2021/12/01 00:14:58;;;;;;;5.10;2.33;;;1.60;65.20;;;;;;5022333;28;20530;-55
2021/12/01 00:17:25;;;;;;;5.70;1.63;;;1.60;61.00;;;;;;5013784;28;20554;-54
2021/12/01 00:19:52;;;;;;;6.87;2.20;;;1.60;58.00;;;;;;5010655;28;20467;-54
2021/12/01 00:22:18;;;;;;;2.27;1.50;;;1.60;62.10;;;;;;5006534;28;20488;-56
2021/12/01 00:24:45;;;;;;;4.40;2.20;;;1.50;58.00;;;;;;5008257;28;20522;-55
2021/12/01 00:27:13;;;;;;;6.03;3.20;;;1.60;56.80;;;;;;5007460;28;20472;-54
2021/12/01 00:29:40;;;;;;;12.80;6.83;;;1.60;55.40;;;;;;5011178;28;20528;-56
2021/12/01 00:32:08;;;;;;;9.27;3.40;;;1.60;45.90;;;;;;5012925;28;20579;-56
2021/12/01 00:34:35;;;;;;;6.20;3.70;;;1.60;44.50;;;;;;5013422;28;20570;-55
2021/12/01 00:37:02;;;;;;;13.67;4.30;;;1.60;51.70;;;;;;5015605;28;20487;-54
2021/12/01 00:39:28;;;;;;;14.20;5.13;;;1.60;60.80;;;;;;5009071;28;20987;-55
2021/12/01 00:41:56;;;;;;;10.00;5.47;;;1.50;53.70;;;;;;5010468;28;20543;-57
2021/12/01 00:44:24;;;;;;;13.73;5.63;;;1.50;47.40;;;;;;5009802;28;20562;-55
2021/12/01 00:46:56;;;;;;;9.13;4.03;;;1.50;40.70;;;;;;5004306;28;20945;-55
2021/12/01 00:49:23;;;;;;;7.77;3.73;;;1.50;39.50;;;;;;5007769;28;20961;-55
2021/12/01 00:51:50;;;;;;;5.40;3.63;;;1.50;42.90;;;;;;5004476;28;20604;-55
2021/12/01 00:54:17;;;;;;;3.83;1.87;;;1.50;36.60;;;;;;5004934;28;20523;-54
2021/12/01 00:56:44;;;;;;;5.47;2.67;;;1.60;34.70;;;;;;5006136;28;20466;-55
2021/12/01 00:59:11;;;;;;;5.63;2.10;;;1.60;44.60;;;;;;5006915;28;21166;-54
2021/12/01 01:01:39;;;;;;;5.07;2.40;;;1.60;46.70;;;;;;5005408;28;20498;-55
2021/12/01 01:04:06;;;;;;;5.13;2.23;;;1.70;46.40;;;;;;5003113;28;20566;-55
2021/12/01 01:06:32;;;;;;;6.53;2.63;;;1.70;56.30;;;;;;5005032;28;20498;-56
2021/12/01 01:09:00;;;;;;;5.00;2.23;;;1.70;61.70;;;;;;5005877;28;20467;-55
2021/12/01 01:16:58;;;;;;;14.37;2.50;;;1.90;75.70;;;;;;5004595;28;20489;-55
2021/12/01 01:19:25;;;;;;;7.83;2.10;;;1.90;77.30;;;;;;5001223;28;20461;-55
2021/12/01 01:21:54;;;;;;;11.03;2.83;;;1.90;79.00;;;;;;5005151;28;20467;-55
2021/12/01 01:24:21;;;;;;;6.00;2.03;;;1.90;79.10;;;;;;5004841;28;21001;-56
2021/12/01 01:26:48;;;;;;;8.03;2.30;;;2.00;79.00;;;;;;5006097;28;20463;-55
2021/12/01 01:29:20;;;;;;;6.90;2.30;;;2.00;86.50;;;;;;5007710;28;21013;-55
2021/12/01 01:31:46;;;;;;;6.23;1.70;;;2.00;85.90;;;;;;5004514;28;20472;-55
2021/12/01 01:34:14;;;;;;;5.03;2.23;;;2.10;89.80;;;;;;5004220;28;20491;-55
2021/12/01 01:36:41;;;;;;;17.20;3.20;;;2.10;95.40;;;;;;5004820;28;20550;-56
2021/12/01 01:39:08;;;;;;;5.60;2.37;;;2.00;99.90;;;;;;5004960;28;20551;-55
2021/12/01 01:41:34;;;;;;;6.40;2.90;;;2.10;99.90;;;;;;5003368;28;20555;-55
2021/12/01 01:44:01;;;;;;;14.63;2.60;;;2.10;99.90;;;;;;5006210;28;20584;-54
2021/12/01 01:46:32;;;;;;;6.70;2.10;;;2.10;99.90;;;;;;5004913;28;20514;-55
2021/12/01 01:49:06;;;;;;;8.53;2.27;;;2.00;99.90;;;;;;5004577;28;20858;-55
2021/12/01 01:51:34;;;;;;;3.40;2.40;;;2.10;99.50;;;;;;5005849;28;20467;-55
2021/12/01 01:54:01;;;;;;;7.10;2.60;;;2.10;95.70;;;;;;5002315;28;20573;-55
2021/12/01 01:56:28;;;;;;;13.07;3.20;;;2.10;88.90;;;;;;5005913;28;20549;-54
2021/12/01 01:58:56;;;;;;;5.00;1.93;;;2.10;84.70;;;;;;5013414;28;21047;-54
2021/12/01 02:01:42;;;;;;;6.07;2.33;;;2.10;83.10;;;;;;5007998;28;20984;-55
2021/12/01 02:04:09;;;;;;;9.57;2.43;;;2.10;90.20;;;;;;5012317;28;20511;-55
2021/12/01 02:06:37;;;;;;;12.60;2.63;;;2.10;87.50;;;;;;5008253;28;20903;-55
2021/12/01 02:09:05;;;;;;;4.90;2.10;;;2.20;83.90;;;;;;5008246;28;20550;-54
2021/12/01 02:11:32;;;;;;;7.10;2.60;;;2.20;83.10;;;;;;5006256;28;20507;-55
2021/12/01 02:13:59;;;;;;;6.23;3.00;;;2.20;79.30;;;;;;5001265;28;20581;-55
2021/12/01 02:16:26;;;;;;;8.63;3.00;;;2.20;74.30;;;;;;5009137;28;20495;-54
2021/12/01 02:18:53;;;;;;;7.80;2.13;;;2.20;73.60;;;;;;5004655;28;20491;-54
2021/12/01 02:21:26;;;;;;;7.53;2.80;;;2.20;71.30;;;;;;5007212;28;20463;-54
2021/12/01 02:23:54;;;;;;;4.73;2.30;;;2.20;66.90;;;;;;5010485;28;20468;-55
2021/12/01 02:26:22;;;;;;;6.20;2.23;;;2.20;62.90;;;;;;5006379;28;20825;-54
2021/12/01 02:28:51;;;;;;;6.83;3.10;;;2.20;58.70;;;;;;5005287;28;20459;-55
2021/12/01 02:31:18;;;;;;;11.33;4.03;;;2.30;60.00;;;;;;5008461;28;20514;-55
2021/12/01 02:33:45;;;;;;;19.20;3.57;;;2.20;55.40;;;;;;5005285;28;20527;-54
2021/12/01 02:36:13;;;;;;;6.50;2.67;;;2.20;56.80;;;;;;5006568;28;20990;-55
2021/12/01 02:38:43;;;;;;;8.47;2.43;;;2.20;52.80;;;;;;5006202;28;20506;-55
2021/12/01 02:41:11;;;;;;;7.53;2.33;;;2.20;46.00;;;;;;5005206;28;20901;-54
2021/12/01 02:43:38;;;;;;;10.80;2.93;;;2.30;44.80;;;;;;5005269;28;21005;-55
2021/12/01 02:46:05;;;;;;;9.03;2.50;;;2.40;40.50;;;;;;5008341;28;20596;-54
2021/12/01 02:48:35;;;;;;;11.53;2.40;;;2.40;45.70;;;;;;5008457;28;20499;-54
2021/12/01 02:51:04;;;;;;;5.20;3.27;;;2.40;44.80;;;;;;5008169;28;20464;-55
2021/12/01 02:53:31;;;;;;;11.90;3.37;;;2.40;48.60;;;;;;5008703;28;20530;-55
2021/12/01 02:56:01;;;;;;;9.60;3.03;;;2.50;48.10;;;;;;5009644;28;20491;-56
2021/12/01 02:58:30;;;;;;;13.43;4.10;;;2.50;47.80;;;;;;5007587;28;20559;-55
2021/12/01 03:00:59;;;;;;;5.63;2.17;;;2.50;50.40;;;;;;5004800;28;20541;-54
2021/12/01 03:03:26;;;;;;;13.00;3.20;;;2.60;45.10;;;;;;5006990;28;20626;-55
2021/12/01 03:05:53;;;;;;;15.50;2.93;;;2.60;49.20;;;;;;5005727;28;20483;-55
2021/12/01 03:08:21;;;;;;;14.40;3.53;;;2.70;49.20;;;;;;5006419;28;20503;-55
2021/12/01 03:10:51;;;;;;;10.13;3.07;;;2.70;52.30;;;;;;5007881;28;20554;-55
2021/12/01 03:13:20;;;;;;;8.60;3.03;;;2.70;47.50;;;;;;5006574;28;21092;-54
2021/12/01 03:15:47;;;;;;;10.67;3.30;;;2.80;46.80;;;;;;5009225;28;20460;-56
2021/12/01 03:18:15;;;;;;;9.63;2.83;;;2.80;45.70;;;;;;5005267;28;20491;-54
2021/12/01 03:20:42;;;;;;;11.03;2.90;;;2.80;42.50;;;;;;5006213;28;20515;-53
2021/12/01 03:23:09;;;;;;;13.67;4.20;;;2.90;41.60;;;;;;5008018;28;20605;-55
2021/12/01 03:25:37;;;;;;;18.37;3.60;;;2.90;42.40;;;;;;5007895;28;20547;-55
2021/12/01 03:28:06;;;;;;;12.13;3.33;;;3.00;41.00;;;;;;5006080;28;20492;-54
2021/12/01 03:30:36;;;;;;;14.57;2.67;;;2.90;49.10;;;;;;5006348;28;20500;-56
2021/12/01 03:33:04;;;;;;;7.13;3.10;;;3.00;41.50;;;;;;5004844;28;20459;-54
2021/12/01 03:35:31;;;;;;;13.07;3.37;;;3.00;40.60;;;;;;5006423;28;20511;-55
2021/12/01 03:37:57;;;;;;;11.23;3.57;;;3.00;38.20;;;;;;5005176;28;20492;-54
2021/12/01 03:40:24;;;;;;;13.27;3.70;;;3.10;39.10;;;;;;5006591;28;21028;-55
2021/12/01 03:42:51;;;;;;;9.63;3.10;;;3.10;39.60;;;;;;5007131;28;20906;-55
2021/12/01 03:45:18;;;;;;;8.23;2.77;;;3.10;41.90;;;;;;5006408;28;20554;-54
2021/12/01 03:47:46;;;;;;;10.77;3.10;;;3.10;42.10;;;;;;5003537;28;20499;-55
2021/12/01 03:50:13;;;;;;;6.37;3.00;;;3.10;42.30;;;;;;5009164;28;20464;-55
2021/12/01 03:52:41;;;;;;;10.37;3.10;;;3.10;43.20;;;;;;5009076;28;20499;-55
2021/12/01 03:55:10;;;;;;;12.53;3.27;;;3.20;35.50;;;;;;5005583;28;20939;-55
2021/12/01 03:57:37;;;;;;;9.93;3.23;;;3.20;33.20;;;;;;5008352;28;20550;-55
2021/12/01 04:00:06;;;;;;;13.37;3.30;;;3.20;31.70;;;;;;5004397;28;20472;-55
2021/12/01 04:02:33;;;;;;;9.00;3.30;;;3.20;34.70;;;;;;5007419;28;20487;-55
2021/12/01 04:05:01;;;;;;;18.50;4.10;;;3.20;32.60;;;;;;5007346;28;20611;-55
2021/12/01 04:07:27;;;;;;;10.27;3.33;;;3.20;33.40;;;;;;5007091;28;20487;-54
2021/12/01 04:09:54;;;;;;;4.77;2.37;;;3.20;32.30;;;;;;5006007;28;20500;-55
2021/12/01 04:12:21;;;;;;;14.37;3.10;;;3.20;30.50;;;;;;5008896;28;20467;-54
2021/12/01 04:14:47;;;;;;;6.93;3.13;;;3.20;31.80;;;;;;5004354;28;20535;-58
2021/12/01 04:17:14;;;;;;;7.53;2.93;;;3.20;26.80;;;;;;5005543;28;21027;-57
2021/12/01 04:19:40;;;;;;;13.87;3.40;;;3.20;27.60;;;;;;5007083;28;20464;-56
2021/12/01 04:22:08;;;;;;;13.93;3.03;;;3.20;21.70;;;;;;5003833;28;20570;-57
2021/12/01 04:24:35;;;;;;;12.57;3.50;;;3.20;21.30;;;;;;5008994;28;20510;-57
2021/12/01 04:27:02;;;;;;;6.70;2.87;;;3.20;76.70;;;;;;5004927;28;20463;-56
2021/12/01 04:29:29;;;;;;;7.50;3.03;;;3.20;99.90;;;;;;5003618;28;20467;-60
2021/12/01 04:31:55;;;;;;;13.50;3.30;;;3.20;99.90;;;;;;5001225;28;20510;-56
2021/12/01 04:34:22;;;;;;;7.87;3.00;;;3.20;99.90;;;;;;5008977;28;20519;-56
2021/12/01 04:36:50;;;;;;;11.30;3.73;;;3.20;99.90;;;;;;5005976;28;20914;-56
2021/12/01 04:39:20;;;;;;;10.70;3.47;;;3.30;99.90;;;;;;5007015;28;20468;-56
2021/12/01 04:41:52;;;;;;;12.23;3.40;;;3.20;99.90;;;;;;5004427;28;20546;-56
2021/12/01 04:44:20;;;;;;;12.20;3.10;;;3.20;99.90;;;;;;5006712;28;20530;-57
2021/12/01 04:46:48;;;;;;;13.87;3.03;;;3.20;99.90;;;;;;5010069;28;20835;-57
2021/12/01 04:49:18;;;;;;;6.67;2.93;;;3.20;99.90;;;;;;5007732;28;20798;-57
2021/12/01 04:51:46;;;;;;;12.67;3.10;;;3.20;99.90;;;;;;5004505;28;20970;-56
2021/12/01 04:54:13;;;;;;;14.33;3.37;;;3.20;99.90;;;;;;5003577;28;20554;-57
2021/12/01 04:56:42;;;;;;;14.60;3.33;;;3.20;99.90;;;;;;5003869;28;21105;-57
2021/12/01 04:59:09;;;;;;;12.03;2.87;;;3.20;99.90;;;;;;5004067;28;20496;-56
2021/12/01 05:01:37;;;;;;;14.33;3.93;;;3.30;99.90;;;;;;5006710;28;20559;-57
2021/12/01 05:04:05;;;;;;;9.67;2.50;;;3.30;99.90;;;;;;5004208;28;20565;-56
2021/12/01 05:06:32;;;;;;;11.50;2.87;;;3.30;99.90;;;;;;5002633;28;20502;-57
2021/12/01 05:08:58;;;;;;;8.97;2.87;;;3.30;99.90;;;;;;5006934;28;20487;-57
2021/12/01 05:11:25;;;;;;;9.73;3.07;;;3.30;99.90;;;;;;5004905;28;20487;-57
2021/12/01 05:13:54;;;;;;;9.07;3.57;;;3.30;99.90;;;;;;5004242;28;20506;-57
2021/12/01 05:16:21;;;;;;;10.33;4.80;;;3.40;99.90;;;;;;5008524;28;20468;-57
2021/12/01 05:18:48;;;;;;;46.10;39.17;;;3.40;99.90;;;;;;5001696;28;20494;-59
2021/12/01 05:21:14;;;;;;;24.93;17.30;;;3.40;99.90;;;;;;5008972;28;20977;-64
2021/12/01 05:23:41;;;;;;;18.73;15.30;;;3.40;99.90;;;;;;5008656;28;20981;-60
2021/12/01 05:26:10;;;;;;;9.33;4.80;;;3.50;99.90;;;;;;5008675;28;20937;-60
2021/12/01 05:28:37;;;;;;;12.77;5.00;;;3.60;93.50;;;;;;5000381;28;20816;-60
2021/12/01 05:31:05;;;;;;;11.37;5.00;;;3.70;99.90;;;;;;5007070;28;20838;-60
2021/12/01 05:33:32;;;;;;;19.80;14.13;;;3.70;99.90;;;;;;5005890;28;21064;-58
2021/12/01 05:35:59;;;;;;;11.93;4.93;;;3.70;99.90;;;;;;5005135;28;20558;-58
2021/12/01 05:38:26;;;;;;;8.30;3.30;;;3.70;99.90;;;;;;5002747;28;20503;-60
2021/12/01 05:40:53;;;;;;;11.07;3.63;;;3.70;99.90;;;;;;5003990;28;20492;-59
2021/12/01 05:43:20;;;;;;;10.97;4.03;;;3.70;97.00;;;;;;5004368;28;20970;-59
2021/12/01 05:45:48;;;;;;;7.33;3.10;;;3.60;87.60;;;;;;5003419;28;20551;-58
2021/12/01 05:48:17;;;;;;;9.30;2.97;;;3.60;85.90;;;;;;5002875;28;20542;-60
2021/12/01 05:50:44;;;;;;;10.23;3.77;;;3.60;78.00;;;;;;5008344;28;20999;-56
2021/12/01 05:53:10;;;;;;;7.00;2.93;;;3.60;73.70;;;;;;5006374;28;20852;-57
2021/12/01 05:55:39;;;;;;;10.27;3.17;;;3.60;67.20;;;;;;5000909;28;20663;-59
2021/12/01 05:58:05;;;;;;;12.30;3.77;;;3.60;61.90;;;;;;5007174;28;20495;-59
2021/12/01 06:00:32;;;;;;;8.53;4.10;;;3.60;54.30;;;;;;5005196;28;20455;-56
2021/12/01 06:02:59;;;;;;;8.00;3.83;;;3.60;45.30;;;;;;5006580;28;20546;-57
2021/12/01 06:05:27;;;;;;;6.90;3.60;;;3.60;35.60;;;;;;5013649;28;20459;-54
2021/12/01 06:07:54;;;;;;;7.50;3.60;;;3.60;27.90;;;;;;5010063;28;20452;-54
2021/12/01 06:10:21;;;;;;;10.80;4.20;;;3.60;27.50;;;;;;4999171;28;20465;-54
2021/12/01 06:12:48;;;;;;;13.17;4.07;;;3.60;99.90;;;;;;5004819;28;20945;-54
2021/12/01 06:15:17;;;;;;;6.43;3.60;;;3.60;99.90;;;;;;5008856;28;20483;-55
2021/12/01 06:17:44;;;;;;;6.60;3.30;;;3.60;99.90;;;;;;5009902;28;20467;-55
2021/12/01 06:20:12;;;;;;;8.40;3.70;;;3.60;99.90;;;;;;5006629;28;20886;-55
2021/12/01 06:22:40;;;;;;;10.57;3.37;;;3.70;99.90;;;;;;5005304;28;20467;-58
2021/12/01 06:25:08;;;;;;;7.83;3.00;;;3.70;99.90;;;;;;5006682;28;20533;-55
2021/12/01 06:27:35;;;;;;;10.70;3.17;;;3.70;99.90;;;;;;5002002;28;20935;-58
2021/12/01 06:30:02;;;;;;;8.03;3.33;;;3.70;99.90;;;;;;5008900;28;20463;-54
2021/12/01 06:32:29;;;;;;;4.03;2.60;;;3.70;99.90;;;;;;5011614;28;20977;-56
2021/12/01 06:34:55;;;;;;;7.80;3.20;;;3.80;99.90;;;;;;5009485;28;20523;-56
2021/12/01 06:37:22;;;;;;;4.87;3.03;;;3.80;99.90;;;;;;5006139;28;20558;-57
2021/12/01 06:39:51;;;;;;;10.83;3.90;;;3.80;99.90;;;;;;5008349;28;20468;-58
2021/12/01 06:42:17;;;;;;;8.00;3.43;;;3.80;99.90;;;;;;5007071;28;20467;-58
2021/12/01 06:44:44;;;;;;;10.90;3.03;;;3.80;99.90;;;;;;5013153;28;21051;-57
2021/12/01 06:47:11;;;;;;;4.90;3.00;;;3.80;99.90;;;;;;5014538;28;20498;-57
2021/12/01 06:49:37;;;;;;;4.80;2.57;;;3.80;99.90;;;;;;5012218;28;20487;-61
2021/12/01 06:52:05;;;;;;;2.53;2.33;;;3.90;99.90;;;;;;5013336;28;20518;-57
2021/12/01 06:54:31;;;;;;;2.93;2.33;;;3.90;99.90;;;;;;5010750;28;20546;-58
2021/12/01 06:56:59;;;;;;;2.37;2.20;;;3.90;99.90;;;;;;5011730;28;20463;-58
2021/12/01 06:59:26;;;;;;;3.57;2.30;;;3.90;99.90;;;;;;5006057;28;20518;-56
2021/12/01 07:01:52;;;;;;;2.27;2.07;;;3.90;99.90;;;;;;5011797;28;20467;-56
2021/12/01 07:04:19;;;;;;;2.83;2.20;;;4.00;99.90;;;;;;5008970;28;20931;-56
2021/12/01 07:06:46;;;;;;;2.50;1.80;;;4.00;99.90;;;;;;5008375;28;20547;-56
2021/12/01 07:09:18;;;;;;;3.03;1.73;;;4.00;99.90;;;;;;5006729;28;20492;-56
2021/12/01 07:11:45;;;;;;;2.83;1.60;;;4.10;99.90;;;;;;5012116;28;20459;-57
2021/12/01 07:14:13;;;;;;;8.47;2.60;;;4.10;99.90;;;;;;5007103;28;20549;-57
2021/12/01 07:16:39;;;;;;;5.37;2.03;;;4.10;99.90;;;;;;5010518;28;20519;-57
2021/12/01 07:19:07;;;;;;;2.03;1.60;;;4.10;99.90;;;;;;5009232;28;20496;-57
2021/12/01 07:21:35;;;;;;;2.17;2.07;;;4.20;99.90;;;;;;5014094;28;20467;-58
2021/12/01 07:24:01;;;;;;;2.27;2.07;;;4.20;99.90;;;;;;5007527;28;20475;-58
2021/12/01 07:26:28;;;;;;;3.60;1.50;;;4.20;99.90;;;;;;5011148;28;20531;-57
2021/12/01 07:28:55;;;;;;;3.07;2.30;;;4.30;99.90;;;;;;5007025;28;20466;-57
2021/12/01 07:31:23;;;;;;;3.45;1.60;;;4.30;99.90;;;;;;5018196;28;20482;-56
2021/12/01 07:33:49;;;;;;;2.67;1.60;;;4.40;99.90;;;;;;5010535;28;20776;-58
2021/12/01 07:36:16;;;;;;;2.33;1.80;;;4.40;94.40;;;;;;5008274;28;20972;-58
2021/12/01 07:38:43;;;;;;;2.40;1.60;;;4.50;99.90;;;;;;5008453;28;20475;-57
2021/12/01 07:41:10;;;;;;;1.20;1.17;;;4.60;95.80;;;;;;5007678;28;20546;-58
2021/12/01 07:43:37;;;;;;;1.77;1.27;;;4.60;92.70;;;;;;5012155;28;20506;-57
2021/12/01 07:46:03;;;;;;;1.67;1.53;;;4.70;92.60;;;;;;5004657;28;20502;-57
2021/12/01 07:48:32;;;;;;;1.73;1.63;;;4.70;92.60;;;;;;5015072;28;20487;-58
2021/12/01 07:50:59;;;;;;;2.20;1.57;;;4.70;93.60;;;;;;5003384;28;20563;-58
2021/12/01 07:53:25;;;;;;;1.60;1.50;;;4.80;89.70;;;;;;5013092;28;20503;-57
2021/12/01 07:55:52;;;;;;;1.90;1.80;;;4.80;85.30;;;;;;5012900;28;20510;-58
2021/12/01 07:58:19;;;;;;;1.47;1.40;;;4.90;87.90;;;;;;5008902;28;20593;-57
2021/12/01 08:00:45;;;;;;;1.63;1.63;;;4.90;81.70;;;;;;5006592;28;20495;-57
2021/12/01 08:03:12;;;;;;;1.83;1.73;;;5.00;82.00;;;;;;5007617;28;20566;-57
2021/12/01 08:05:40;;;;;;;2.77;2.50;;;5.00;83.20;;;;;;5007790;28;21040;-57
2021/12/01 08:08:07;;;;;;;1.83;1.80;;;5.00;82.30;;;;;;5009088;28;21029;-56
2021/12/01 08:10:34;;;;;;;4.20;2.13;;;5.10;79.50;;;;;;5010953;28;20543;-57
2021/12/01 08:13:01;;;;;;;1.90;1.90;;;5.10;78.70;;;;;;5010092;28;21021;-57
2021/12/01 08:15:28;;;;;;;2.00;1.90;;;5.10;79.70;;;;;;5010997;28;22191;-56
2021/12/01 08:17:55;;;;;;;2.10;2.00;;;5.20;72.60;;;;;;5018829;28;20553;-57
2021/12/01 08:20:22;;;;;;;2.17;2.03;;;5.20;69.40;;;;;;5006065;28;20491;-57
2021/12/01 08:22:50;;;;;;;1.90;1.80;;;5.30;63.30;;;;;;5010718;28;20633;-55
2021/12/01 08:25:17;;;;;;;4.23;2.03;;;5.30;64.60;;;;;;5020875;28;20448;-54
2021/12/01 08:27:43;;;;;;;2.23;2.13;;;5.30;63.10;;;;;;5010020;28;21004;-54
2021/12/01 08:30:11;;;;;;;2.33;2.17;;;5.40;57.10;;;;;;5006177;28;20945;-55
2021/12/01 08:32:37;;;;;;;2.40;2.30;;;5.50;57.10;;;;;;5009867;28;20483;-55
2021/12/01 08:35:08;;;;;;;2.20;2.07;;;5.50;58.50;;;;;;5015967;28;20570;-54
2021/12/01 08:37:34;;;;;;;2.47;2.30;;;5.60;57.00;;;;;;5011050;28;20456;-54
2021/12/01 08:40:02;;;;;;;2.43;2.20;;;5.60;54.70;;;;;;5011086;28;20522;-58
2021/12/01 08:42:29;;;;;;;2.53;2.33;;;5.70;53.80;;;;;;5008744;28;20494;-58
2021/12/01 08:44:56;;;;;;;2.30;2.10;;;5.70;54.60;;;;;;5020801;28;20529;-57
2021/12/01 08:47:24;;;;;;;2.03;1.93;;;5.80;51.60;;;;;;5012641;28;20985;-57
2021/12/01 08:49:52;;;;;;;2.20;2.07;;;5.80;52.40;;;;;;5008171;28;20459;-56
2021/12/01 08:52:19;;;;;;;2.63;2.43;;;5.90;57.30;;;;;;5015176;28;20527;-57
2021/12/01 08:54:45;;;;;;;2.13;2.03;;;5.90;57.30;;;;;;5025642;28;20510;-57
2021/12/01 08:57:14;;;;;;;1.83;1.83;;;6.00;60.20;;;;;;5007685;28;20507;-57
2021/12/01 08:59:42;;;;;;;2.00;1.90;;;6.00;68.80;;;;;;5019736;28;20467;-58
2021/12/01 09:02:08;;;;;;;1.90;1.90;;;6.00;73.70;;;;;;5024255;28;20483;-59
2021/12/01 09:04:36;;;;;;;1.90;1.80;;;6.00;77.50;;;;;;5015934;28;20506;-59
2021/12/01 09:07:04;;;;;;;1.93;1.83;;;6.10;78.40;;;;;;5014546;28;20464;-59
2021/12/01 09:09:31;;;;;;;3.77;1.60;;;6.10;79.00;;;;;;5010443;28;20488;-58
2021/12/01 09:11:58;;;;;;;1.57;1.50;;;6.10;78.80;;;;;;5009211;28;20472;-58
2021/12/01 09:14:26;;;;;;;2.00;1.90;;;6.10;80.40;;;;;;5008466;28;20495;-59
2021/12/01 09:16:55;;;;;;;1.57;1.57;;;6.10;82.60;;;;;;5009679;28;20515;-60
2021/12/01 09:19:21;;;;;;;1.70;1.60;;;6.10;90.20;;;;;;5008110;28;20462;-59
2021/12/01 09:21:49;;;;;;;1.47;1.47;;;6.10;88.40;;;;;;5008425;28;20964;-59
2021/12/01 09:24:17;;;;;;;1.70;1.60;;;6.10;92.40;;;;;;5011982;28;20503;-58
2021/12/01 09:26:45;;;;;;;1.90;1.80;;;6.20;96.80;;;;;;5001180;28;20460;-58
2021/12/01 09:29:12;;;;;;;1.60;1.50;;;6.10;99.90;;;;;;5015098;28;20491;-58
2021/12/01 09:31:40;;;;;;;1.70;1.60;;;6.20;99.90;;;;;;5010765;28;20498;-58
2021/12/01 09:34:06;;;;;;;1.53;1.43;;;6.20;99.90;;;;;;5009987;28;21058;-55
2021/12/01 09:36:33;;;;;;;1.50;1.40;;;6.20;99.90;;;;;;5019434;28;20988;-54
2021/12/01 09:38:59;;;;;;;1.90;1.47;;;6.20;99.90;;;;;;5005396;28;20492;-54
2021/12/01 09:41:26;;;;;;;1.40;1.40;;;6.20;99.90;;;;;;5001015;28;21162;-54
2021/12/01 09:43:53;;;;;;;2.10;2.00;;;6.20;99.90;;;;;;5007394;28;20516;-55
2021/12/01 09:46:20;;;;;;;2.07;1.73;;;6.20;99.90;;;;;;5006625;28;20460;-54
2021/12/01 09:48:48;;;;;;;1.80;1.70;;;6.20;99.90;;;;;;5016291;28;20511;-54
2021/12/01 09:51:17;;;;;;;3.30;2.03;;;6.20;99.90;;;;;;5005874;28;20490;-54
2021/12/01 09:53:44;;;;;;;2.00;1.90;;;6.20;99.90;;;;;;5007638;28;20556;-54
2021/12/01 09:56:11;;;;;;;2.00;1.90;;;6.20;99.90;;;;;;5009141;28;20515;-55
2021/12/01 09:58:38;;;;;;;2.20;2.00;;;6.30;99.90;;;;;;5002915;28;20484;-59
2021/12/01 10:01:08;;;;;;;1.43;1.33;;;6.30;99.90;;;;;;5004068;28;20518;-58
2021/12/01 10:03:36;;;;;;;2.00;1.90;;;6.30;99.90;;;;;;5014171;28;20956;-58
2021/12/01 10:06:07;;;;;;;1.60;1.47;;;6.30;99.90;;;;;;5009094;28;20487;-57
2021/12/01 10:08:36;;;;;;;1.90;1.30;;;6.30;26.70;;;;;;5012196;28;20505;-56
2021/12/01 10:11:08;;;;;;;1.60;1.50;;;6.40;50.60;;;;;;5007909;28;20498;-56
2021/12/01 10:13:37;;;;;;;2.13;1.47;;;6.40;38.30;;;;;;5003122;28;20514;-56
2021/12/01 10:16:06;;;;;;;1.97;1.87;;;6.30;50.60;;;;;;5008406;28;20499;-60
2021/12/01 10:18:37;;;;;;;1.77;1.77;;;6.40;62.70;;;;;;5011813;28;20471;-58
2021/12/01 10:21:09;;;;;;;2.53;2.27;;;6.40;79.50;;;;;;5007441;28;20582;-59
2021/12/01 10:23:36;;;;;;;1.80;1.73;;;6.40;94.70;;;;;;5011021;28;21176;-59
2021/12/01 10:26:19;;;;;;;1.60;1.60;;;6.40;99.90;;;;;;5016868;28;20495;-59
2021/12/01 10:28:47;;;;;;;5.20;1.80;;;6.40;99.90;;;;;;5015755;28;20461;-60
2021/12/01 10:31:15;;;;;;;1.73;1.67;;;6.40;98.20;;;;;;5014367;28;20455;-57
2021/12/01 10:33:42;;;;;;;1.70;1.60;;;6.40;99.40;;;;;;5010935;28;20513;-55
2021/12/01 10:36:12;;;;;;;1.70;1.60;;;6.40;99.90;;;;;;5012681;28;20505;-57
2021/12/01 10:38:45;;;;;;;1.80;1.70;;;6.50;99.90;;;;;;5011225;28;20468;-58
2021/12/01 10:41:13;;;;;;;1.90;1.80;;;6.40;99.90;;;;;;5004744;28;20969;-61
2021/12/01 10:43:44;;;;;;;2.10;2.00;;;6.40;99.90;;;;;;5013061;28;20518;-55
2021/12/01 10:46:12;;;;;;;1.70;1.60;;;6.40;99.90;;;;;;5009793;28;20470;-55
2021/12/01 10:48:41;;;;;;;2.07;1.97;;;6.40;98.30;;;;;;5006054;28;20498;-54
2021/12/01 10:51:12;;;;;;;2.70;1.90;;;6.40;93.80;;;;;;5010548;28;20471;-55
2021/12/01 10:53:39;;;;;;;1.80;1.70;;;6.40;79.50;;;;;;5014160;28;20513;-56
2021/12/01 10:56:07;;;;;;;2.07;1.87;;;6.40;61.60;;;;;;5008517;28;20494;-54
2021/12/01 10:58:36;;;;;;;2.27;2.17;;;6.30;52.50;;;;;;5010068;28;20463;-55
2021/12/01 11:01:06;;;;;;;2.57;2.37;;;6.30;43.60;;;;;;5010216;28;20510;-55
2021/12/01 11:03:35;;;;;;;2.20;2.03;;;6.30;36.50;;;;;;5013536;28;20525;-55
2021/12/01 11:06:18;;;;;;;2.53;2.33;;;6.30;32.70;;;;;;5010645;28;20510;-55
2021/12/01 11:08:47;;;;;;;2.33;2.23;;;6.30;20.20;;;;;;5004276;28;20463;-57
2021/12/01 11:11:16;;;;;;;2.07;1.97;;;6.30;20.80;;;;;;5012990;28;20459;-54
2021/12/01 11:13:45;;;;;;;2.10;2.00;;;6.30;31.70;;;;;;5018181;28;21070;-54
2021/12/01 11:16:14;;;;;;;2.23;2.13;;;6.30;36.50;;;;;;5012822;28;20515;-55
2021/12/01 11:18:43;;;;;;;4.10;1.90;;;6.30;37.80;;;;;;5008670;28;20518;-54
2021/12/01 11:21:12;;;;;;;2.27;2.17;;;6.30;54.70;;;;;;5013260;28;20467;-56
2021/12/01 11:23:41;;;;;;;2.03;1.93;;;6.40;80.30;;;;;;5012424;28;20511;-56
2021/12/01 11:26:10;;;;;;;2.30;2.20;;;6.40;99.60;;;;;;5012891;28;20927;-55
2021/12/01 11:28:39;;;;;;;2.20;2.10;;;6.40;99.90;;;;;;5010509;28;20459;-56
2021/12/01 11:31:10;;;;;;;1.50;1.50;;;6.50;98.80;;;;;;5005884;28;20502;-56
2021/12/01 11:33:43;;;;;;;2.33;2.20;;;6.50;99.90;;;;;;5004967;28;20570;-57
2021/12/01 11:36:11;;;;;;;2.27;1.70;;;6.50;99.90;;;;;;5008822;28;20488;-54
2021/12/01 11:38:39;;;;;;;1.70;1.60;;;6.50;99.90;;;;;;5011216;28;20464;-55
2021/12/01 11:41:07;;;;;;;1.90;1.80;;;6.50;99.90;;;;;;5009005;28;20509;-58
2021/12/01 11:43:37;;;;;;;1.90;1.80;;;6.50;99.90;;;;;;5012310;28;20503;-57
2021/12/01 11:46:05;;;;;;;2.07;1.97;;;6.60;99.90;;;;;;5013121;28;20567;-56
2021/12/01 11:48:34;;;;;;;1.63;1.63;;;6.50;99.90;;;;;;5010930;28;20439;-56
2021/12/01 11:51:12;;;;;;;1.73;1.70;;;6.60;99.90;;;;;;5013780;28;20485;-59
2021/12/01 11:53:43;;;;;;;2.00;1.90;;;6.60;99.90;;;;;;5007699;28;20530;-56
2021/12/01 11:56:18;;;;;;;1.90;1.80;;;6.60;99.90;;;;;;5005684;28;20547;-55
2021/12/01 11:58:54;;;;;;;1.80;1.70;;;6.60;99.90;;;;;;5010162;28;20449;-57
2021/12/01 12:01:41;;;;;;;1.57;1.57;;;6.60;99.90;;;;;;5003433;28;20463;-58
2021/12/01 12:04:30;;;;;;;1.90;1.80;;;6.60;99.90;;;;;;5010347;28;20515;-58
2021/12/01 12:07:03;;;;;;;1.87;1.60;;;6.70;99.90;;;;;;5005413;28;20541;-59
2021/12/01 12:09:32;;;;;;;1.90;1.80;;;6.70;99.90;;;;;;5004517;28;20987;-59
2021/12/01 12:12:17;;;;;;;1.93;1.93;;;6.70;99.90;;;;;;5015031;28;20482;-59
2021/12/01 12:14:53;;;;;;;1.67;1.57;;;6.70;99.90;;;;;;5005507;28;21038;-58
2021/12/01 12:17:23;;;;;;;2.73;1.60;;;6.70;99.90;;;;;;5001205;28;20522;-58
2021/12/01 12:19:55;;;;;;;1.47;1.40;;;6.80;99.90;;;;;;5005553;28;20531;-58
2021/12/01 12:22:28;;;;;;;1.30;1.30;;;6.80;99.90;;;;;;5007681;28;20890;-58
2021/12/01 12:24:56;;;;;;;1.57;1.50;;;6.80;26.50;;;;;;5009521;28;20484;-58
2021/12/01 12:27:35;;;;;;;2.17;2.00;;;6.80;32.40;;;;;;5010187;28;20464;-58
2021/12/01 12:30:05;;;;;;;1.43;1.43;;;6.80;32.10;;;;;;5009214;28;20875;-58
2021/12/01 12:32:33;;;;;;;2.07;1.87;;;6.80;47.00;;;;;;5014826;28;20502;-58
2021/12/01 12:35:02;;;;;;;3.90;1.43;;;6.80;47.20;;;;;;5008939;28;20562;-58
2021/12/01 12:37:31;;;;;;;1.70;1.70;;;6.90;59.40;;;;;;5012047;28;20494;-58
2021/12/01 12:40:00;;;;;;;1.37;1.33;;;6.90;57.90;;;;;;5011902;28;20522;-59
2021/12/01 12:42:28;;;;;;;1.53;1.43;;;6.90;61.00;;;;;;5011157;28;20495;-57
2021/12/01 12:44:57;;;;;;;1.77;1.67;;;6.90;64.30;;;;;;5012505;28;20476;-58
2021/12/01 12:47:26;;;;;;;1.73;1.70;;;6.90;70.60;;;;;;5012010;28;20455;-60
2021/12/01 12:49:56;;;;;;;2.17;1.97;;;6.90;72.80;;;;;;5009001;28;21005;-58
2021/12/01 12:52:38;;;;;;;2.83;1.93;;;6.90;74.60;;;;;;5011611;28;20459;-57
2021/12/01 12:55:09;;;;;;;2.20;1.50;;;7.00;88.30;;;;;;5012536;28;20526;-58
2021/12/01 12:57:51;;;;;;;1.70;1.60;;;7.00;87.00;;;;;;5011851;28;20471;-58
2021/12/01 13:00:22;;;;;;;3.50;1.60;;;7.00;86.30;;;;;;4994577;28;20448;-58
2021/12/01 13:02:50;;;;;;;4.80;1.80;;;7.00;87.70;;;;;;5013306;28;20506;-58
2021/12/01 13:05:30;;;;;;;2.23;1.50;;;7.00;95.10;;;;;;5009723;28;20482;-58